Time;durP1;ratioP1;P1;durP2;ratioP2;P2;SDS_P1;SDS_P2;PMS_P1;PMS_P2;Temp;Humidity;BMP_temperature;BMP_pressure;BME280_temperature;BME280_humidity;BME280_pressure;Samples;Min_cycle;Max_cycle;Signal;HPM_P1;HPM_P2
2021/11/30 00:02:25;;;;;;;3.65;0.95;;;;;;;;;;5019160;28;20044;-55
2021/11/30 00:04:51;;;;;;;2.97;1.00;;;;;;;;;;5021653;28;20050;-56
2021/11/30 00:07:19;;;;;;;7.88;1.40;;;;;;;;;;5027564;28;20133;-57
2021/11/30 00:12:34;;;;;;;3.15;1.08;;;;;;;;;;5043111;28;20077;-58
2021/11/30 00:15:02;;;;;;;3.00;1.15;;;;;;;;;;5045509;28;20045;-57
2021/11/30 00:17:30;;;;;;;5.43;1.60;;;;;;;;;;5039000;28;20037;-55
2021/11/30 00:19:56;;;;;;;6.43;1.70;;;;;;;;;;5042241;28;20033;-53
2021/11/30 00:22:23;;;;;;;4.55;1.40;;;;;;;;;;5033205;28;20042;-53
2021/11/30 00:24:50;;;;;;;8.02;1.88;;;;;;;;;;5022109;28;20160;-54
2021/11/30 00:27:17;;;;;;;8.00;1.52;;;;;;;;;;5023206;28;20175;-52
2021/11/30 00:29:44;;;;;;;5.80;1.70;;;;;;;;;;5060599;28;20151;-51
2021/11/30 00:32:12;;;;;;;6.00;2.08;;;;;;;;;;5056779;28;20047;-55
2021/11/30 00:34:39;;;;;;;9.48;1.80;;;;;;;;;;5038913;28;20041;-55
2021/11/30 00:37:05;;;;;;;8.02;1.95;;;;;;;;;;5040186;28;20346;-53
2021/11/30 00:39:32;;;;;;;8.93;1.73;;;;;;;;;;5038192;28;20037;-52
2021/11/30 00:42:00;;;;;;;6.20;1.73;;;;;;;;;;5040870;28;20115;-52
2021/11/30 00:44:28;;;;;;;10.57;2.53;;;;;;;;;;5035866;28;20056;-54
2021/11/30 00:46:56;;;;;;;9.75;1.98;;;;;;;;;;5041669;28;20037;-56
2021/11/30 00:49:25;;;;;;;8.75;2.55;;;;;;;;;;5025312;28;20046;-56
2021/11/30 00:51:54;;;;;;;7.18;1.70;;;;;;;;;;5025239;28;20045;-57
2021/11/30 00:54:21;;;;;;;8.60;2.38;;;;;;;;;;5026546;28;20033;-56
2021/11/30 00:56:48;;;;;;;6.60;1.83;;;;;;;;;;5041256;28;20045;-55
2021/11/30 00:59:15;;;;;;;2.72;1.20;;;;;;;;;;5039230;28;20144;-54
2021/11/30 01:01:41;;;;;;;14.00;2.90;;;;;;;;;;5041118;28;20047;-53
2021/11/30 01:04:11;;;;;;;8.20;2.55;;;;;;;;;;5032056;28;20044;-55
2021/11/30 01:06:39;;;;;;;7.13;1.88;;;;;;;;;;5020809;28;20049;-55
2021/11/30 01:09:07;;;;;;;11.23;2.45;;;;;;;;;;5022710;28;20138;-55
2021/11/30 01:11:33;;;;;;;4.57;1.70;;;;;;;;;;5040549;28;20041;-56
2021/11/30 01:14:00;;;;;;;6.43;1.98;;;;;;;;;;5038992;28;20080;-53
2021/11/30 01:16:28;;;;;;;4.90;1.80;;;;;;;;;;5041926;28;20069;-56
2021/11/30 01:18:54;;;;;;;5.78;2.03;;;;;;;;;;5040305;28;20045;-55
2021/11/30 01:21:21;;;;;;;7.47;1.42;;;;;;;;;;5018678;28;20176;-52
2021/11/30 01:23:49;;;;;;;4.63;1.48;;;;;;;;;;5021635;28;20037;-56
2021/11/30 01:26:16;;;;;;;5.83;1.80;;;;;;;;;;5018510;28;20095;-56
2021/11/30 01:28:42;;;;;;;5.78;2.08;;;;;;;;;;5023853;28;20283;-57
2021/11/30 01:31:09;;;;;;;4.82;1.20;;;;;;;;;;5017465;28;20127;-56
2021/11/30 01:33:36;;;;;;;8.95;2.00;;;;;;;;;;5029499;28;20029;-58
2021/11/30 01:36:03;;;;;;;4.80;1.70;;;;;;;;;;5027788;28;20120;-57
2021/11/30 01:38:30;;;;;;;8.63;2.10;;;;;;;;;;5022689;28;20172;-51
2021/11/30 01:41:00;;;;;;;3.03;1.40;;;;;;;;;;5019055;28;20041;-57
2021/11/30 01:43:33;;;;;;;9.23;1.98;;;;;;;;;;5020093;28;20119;-53
2021/11/30 01:46:06;;;;;;;7.53;2.28;;;;;;;;;;5018126;28;20037;-55
2021/11/30 01:51:16;;;;;;;5.55;1.77;;;;;;;;;;5016536;28;20119;-52
2021/11/30 01:53:43;;;;;;;4.97;1.65;;;;;;;;;;5020635;28;20042;-54
2021/11/30 01:56:11;;;;;;;4.75;1.67;;;;;;;;;;5018468;28;20487;-52
2021/11/30 01:58:37;;;;;;;4.03;1.58;;;;;;;;;;5019899;28;20174;-52
2021/11/30 02:01:04;;;;;;;7.43;1.98;;;;;;;;;;5025042;28;20073;-54
2021/11/30 02:03:30;;;;;;;5.05;1.70;;;;;;;;;;5061957;28;20048;-54
2021/11/30 02:05:57;;;;;;;6.72;1.92;;;;;;;;;;5055746;28;20045;-54
2021/11/30 02:08:27;;;;;;;7.10;1.60;;;;;;;;;;5040975;28;20045;-49
2021/11/30 02:10:56;;;;;;;9.30;2.25;;;;;;;;;;5039299;28;20033;-50
2021/11/30 02:13:25;;;;;;;11.00;1.92;;;;;;;;;;5017982;28;20416;-57
2021/11/30 02:15:54;;;;;;;7.88;2.08;;;;;;;;;;5019933;28;20026;-56
2021/11/30 02:18:23;;;;;;;14.32;2.78;;;;;;;;;;5018887;28;20038;-56
2021/11/30 02:20:52;;;;;;;12.25;2.42;;;;;;;;;;5020592;28;20041;-57
2021/11/30 02:23:31;;;;;;;10.05;1.95;;;;;;;;;;5016048;28;20045;-54
2021/11/30 02:25:57;;;;;;;12.32;2.97;;;;;;;;;;5020602;28;20487;-49
2021/11/30 02:28:24;;;;;;;14.63;2.58;;;;;;;;;;5016622;28;20050;-57
2021/11/30 02:30:50;;;;;;;9.85;2.42;;;;;;;;;;5020751;28;20041;-54
2021/11/30 02:33:17;;;;;;;9.02;2.75;;;;;;;;;;5028526;28;20056;-57
2021/11/30 02:35:43;;;;;;;12.55;2.53;;;;;;;;;;5041171;28;20041;-57
2021/11/30 02:38:12;;;;;;;14.27;2.50;;;;;;;;;;5036349;28;20110;-56
2021/11/30 02:40:38;;;;;;;15.13;2.70;;;;;;;;;;5039114;28;20057;-56
2021/11/30 02:43:05;;;;;;;11.65;2.30;;;;;;;;;;5036899;28;20053;-57
2021/11/30 02:45:32;;;;;;;7.28;1.88;;;;;;;;;;5040610;28;20055;-55
2021/11/30 02:47:59;;;;;;;13.43;2.25;;;;;;;;;;5031900;28;20057;-58
2021/11/30 02:50:27;;;;;;;13.02;3.10;;;;;;;;;;5022136;28;20139;-55
2021/11/30 02:52:54;;;;;;;12.90;2.77;;;;;;;;;;5018622;28;20048;-58
2021/11/30 02:55:22;;;;;;;7.70;2.65;;;;;;;;;;5040790;28;20476;-59
2021/11/30 02:57:51;;;;;;;9.70;2.60;;;;;;;;;;5040591;28;20029;-57
2021/11/30 03:00:17;;;;;;;6.15;2.15;;;;;;;;;;5023142;28;20050;-56
2021/11/30 03:02:43;;;;;;;11.52;2.70;;;;;;;;;;5040783;28;20138;-51
2021/11/30 03:05:10;;;;;;;7.22;2.55;;;;;;;;;;5034311;28;20052;-57
2021/11/30 03:07:38;;;;;;;6.00;1.80;;;;;;;;;;5041878;28;20037;-56
2021/11/30 03:10:06;;;;;;;11.15;2.58;;;;;;;;;;5020986;28;20060;-55
2021/11/30 03:12:34;;;;;;;8.40;2.55;;;;;;;;;;5028928;28;20053;-52
2021/11/30 03:15:06;;;;;;;8.80;2.28;;;;;;;;;;5034367;28;20045;-50
2021/11/30 03:17:34;;;;;;;6.55;2.55;;;;;;;;;;5040535;28;20041;-55
2021/11/30 03:20:00;;;;;;;8.18;2.40;;;;;;;;;;5024868;28;20049;-55
2021/11/30 03:22:26;;;;;;;6.97;2.63;;;;;;;;;;5018261;28;20123;-52
2021/11/30 03:24:56;;;;;;;5.55;1.98;;;;;;;;;;5016548;28;20053;-55
2021/11/30 03:27:23;;;;;;;4.70;1.85;;;;;;;;;;5019391;28;20026;-53
2021/11/30 03:29:52;;;;;;;6.97;2.50;;;;;;;;;;5029574;28;20041;-55
2021/11/30 03:34:59;;;;;;;5.55;1.63;;;;;;;;;;5018544;28;20037;-53
2021/11/30 03:37:26;;;;;;;6.40;2.15;;;;;;;;;;5019562;28;20050;-53
2021/11/30 03:39:52;;;;;;;5.03;2.17;;;;;;;;;;5018309;28;20557;-55
2021/11/30 03:42:19;;;;;;;4.47;2.40;;;;;;;;;;5038654;28;20089;-52
2021/11/30 03:44:46;;;;;;;5.97;1.88;;;;;;;;;;5036756;28;20053;-55
2021/11/30 03:47:14;;;;;;;2.72;1.27;;;;;;;;;;5040258;28;20107;-56
2021/11/30 03:49:40;;;;;;;3.73;1.77;;;;;;;;;;5040298;28;20037;-53
2021/11/30 03:52:07;;;;;;;2.95;1.55;;;;;;;;;;5033971;28;20048;-50
2021/11/30 03:54:34;;;;;;;2.88;1.73;;;;;;;;;;5039045;28;20107;-54
2021/11/30 03:57:00;;;;;;;4.88;2.28;;;;;;;;;;5018293;28;20056;-53
2021/11/30 03:59:27;;;;;;;4.63;1.55;;;;;;;;;;5018759;28;20169;-55
2021/11/30 04:01:54;;;;;;;3.90;1.67;;;;;;;;;;5028722;28;20091;-53
2021/11/30 04:04:23;;;;;;;3.97;1.60;;;;;;;;;;5037782;28;20086;-51
2021/11/30 04:06:50;;;;;;;3.00;1.58;;;;;;;;;;5033632;28;20122;-54
2021/11/30 04:09:17;;;;;;;2.47;1.45;;;;;;;;;;5039264;28;20038;-53
2021/11/30 04:11:44;;;;;;;4.40;2.00;;;;;;;;;;5035522;28;20029;-57
2021/11/30 04:14:11;;;;;;;3.60;1.85;;;;;;;;;;5042046;28;20045;-56
2021/11/30 04:16:39;;;;;;;2.78;1.33;;;;;;;;;;5040172;28;20114;-58
2021/11/30 04:19:05;;;;;;;3.38;1.80;;;;;;;;;;5046328;28;20118;-58
2021/11/30 04:21:33;;;;;;;5.10;1.45;;;;;;;;;;5039420;28;20052;-53
2021/11/30 04:24:00;;;;;;;3.47;1.50;;;;;;;;;;5043005;28;20490;-52
2021/11/30 04:26:26;;;;;;;3.22;1.42;;;;;;;;;;5040447;28;20085;-55
2021/11/30 04:28:53;;;;;;;2.25;1.08;;;;;;;;;;5060396;28;20183;-54
2021/11/30 04:31:20;;;;;;;2.42;1.42;;;;;;;;;;5062288;28;20085;-54
2021/11/30 04:33:46;;;;;;;2.85;1.40;;;;;;;;;;5029488;28;20034;-58
2021/11/30 04:36:13;;;;;;;3.35;1.42;;;;;;;;;;5021839;28;20042;-56
2021/11/30 04:38:41;;;;;;;2.45;1.30;;;;;;;;;;5017913;28;20251;-56
2021/11/30 04:41:07;;;;;;;2.10;1.27;;;;;;;;;;5018203;28;20058;-57
2021/11/30 04:43:35;;;;;;;3.80;1.17;;;;;;;;;;5017763;28;20456;-52
2021/11/30 04:46:06;;;;;;;2.38;1.13;;;;;;;;;;5020015;28;20145;-53
2021/11/30 04:48:34;;;;;;;1.95;1.10;;;;;;;;;;5016822;28;20042;-55
2021/11/30 04:51:02;;;;;;;2.33;1.30;;;;;;;;;;5020133;28;20267;-53
2021/11/30 04:53:31;;;;;;;1.50;0.90;;;;;;;;;;5018735;28;20066;-55
2021/11/30 04:55:58;;;;;;;1.77;1.15;;;;;;;;;;5021142;28;20042;-58
2021/11/30 04:58:25;;;;;;;2.97;1.43;;;;;;;;;;5022836;28;20041;-51
2021/11/30 05:00:54;;;;;;;2.40;1.33;;;;;;;;;;5035873;28;20041;-56
2021/11/30 05:03:20;;;;;;;;;;;;;;;;;;5032243;28;20037;-54
2021/11/30 05:05:47;;;;;;;4.82;1.02;;;;;;;;;;5020142;28;19917;-57
2021/11/30 05:08:13;;;;;;;2.28;1.20;;;;;;;;;;5022909;28;20102;-57
2021/11/30 05:10:40;;;;;;;1.90;1.10;;;;;;;;;;5041323;28;20049;-56
2021/11/30 05:13:08;;;;;;;3.55;1.20;;;;;;;;;;5038994;28;20163;-56
2021/11/30 05:15:34;;;;;;;1.83;1.20;;;;;;;;;;5020131;28;20056;-56
2021/11/30 05:18:06;;;;;;;2.65;1.10;;;;;;;;;;5022019;28;20809;-55
2021/11/30 05:20:33;;;;;;;1.70;0.85;;;;;;;;;;5019019;28;20382;-55
2021/11/30 05:22:59;;;;;;;1.77;1.20;;;;;;;;;;5020265;28;20038;-58
2021/11/30 05:25:32;;;;;;;1.63;1.13;;;;;;;;;;5034794;28;20049;-57
2021/11/30 05:28:00;;;;;;;2.05;1.10;;;;;;;;;;5041073;28;20044;-57
2021/11/30 05:30:35;;;;;;;2.35;1.30;;;;;;;;;;5037807;28;20049;-55
2021/11/30 05:33:02;;;;;;;1.98;1.23;;;;;;;;;;5038506;28;20060;-56
2021/11/30 05:35:28;;;;;;;1.90;0.95;;;;;;;;;;5018223;28;20196;-57
2021/11/30 05:37:55;;;;;;;1.95;1.30;;;;;;;;;;5022704;28;20119;-57
2021/11/30 05:40:21;;;;;;;1.55;1.15;;;;;;;;;;5028300;28;20044;-57
2021/11/30 05:42:48;;;;;;;2.40;1.30;;;;;;;;;;5043752;28;20034;-57
2021/11/30 05:45:15;;;;;;;2.05;1.08;;;;;;;;;;5029322;28;20094;-53
2021/11/30 05:47:43;;;;;;;3.97;1.52;;;;;;;;;;5022621;28;20026;-53
2021/11/30 05:50:09;;;;;;;1.83;1.23;;;;;;;;;;5018600;28;20029;-56
2021/11/30 05:52:36;;;;;;;1.98;1.20;;;;;;;;;;5019405;28;20045;-55
2021/11/30 05:55:04;;;;;;;1.73;1.10;;;;;;;;;;5023697;28;20053;-56
2021/11/30 05:57:31;;;;;;;2.90;1.60;;;;;;;;;;5060782;28;20032;-55
2021/11/30 06:00:00;;;;;;;1.40;1.00;;;;;;;;;;5057402;28;20068;-55
2021/11/30 06:02:29;;;;;;;9.75;3.65;;;;;;;;;;5041003;28;20033;-55
2021/11/30 06:04:57;;;;;;;7.90;3.90;;;;;;;;;;5039134;28;20052;-52
2021/11/30 06:07:24;;;;;;;2.87;1.70;;;;;;;;;;5021461;28;20060;-52
2021/11/30 06:09:51;;;;;;;2.95;1.40;;;;;;;;;;5031954;28;20309;-54
2021/11/30 06:12:17;;;;;;;3.75;1.40;;;;;;;;;;5034134;28;20056;-53
2021/11/30 06:14:44;;;;;;;6.40;1.83;;;;;;;;;;5029009;28;20077;-53
2021/11/30 06:17:14;;;;;;;3.95;1.40;;;;;;;;;;5025653;28;20607;-55
2021/11/30 06:19:40;;;;;;;1.75;1.10;;;;;;;;;;5032255;28;20069;-55
2021/11/30 06:22:08;;;;;;;1.80;1.20;;;;;;;;;;5028072;28;20085;-57
2021/11/30 06:24:35;;;;;;;1.75;1.10;;;;;;;;;;5038220;28;20049;-54
2021/11/30 06:27:01;;;;;;;2.83;1.25;;;;;;;;;;5023641;28;20123;-54
2021/11/30 06:29:28;;;;;;;1.85;1.17;;;;;;;;;;5031903;28;20041;-52
2021/11/30 06:31:55;;;;;;;5.47;1.50;;;;;;;;;;5028605;28;20097;-53
2021/11/30 06:34:21;;;;;;;2.58;1.30;;;;;;;;;;5038683;28;20046;-56
2021/11/30 06:36:48;;;;;;;3.72;1.50;;;;;;;;;;5027008;28;20049;-56
2021/11/30 06:39:16;;;;;;;1.90;1.00;;;;;;;;;;5029896;28;20045;-56
2021/11/30 06:41:42;;;;;;;3.38;1.55;;;;;;;;;;5025530;28;20042;-57
2021/11/30 06:44:09;;;;;;;2.75;1.30;;;;;;;;;;5030972;28;20045;-54
2021/11/30 06:46:35;;;;;;;6.63;2.92;;;;;;;;;;5031776;28;20073;-56
2021/11/30 06:49:02;;;;;;;4.88;1.77;;;;;;;;;;5027835;28;20037;-58
2021/11/30 06:51:28;;;;;;;3.60;1.70;;;;;;;;;;5030353;28;20041;-55
2021/11/30 06:53:55;;;;;;;4.38;1.60;;;;;;;;;;5025769;28;20498;-57
2021/11/30 06:56:23;;;;;;;4.95;2.08;;;;;;;;;;5022771;28;20057;-58
2021/11/30 06:58:49;;;;;;;4.40;1.90;;;;;;;;;;5032574;28;20049;-55
2021/11/30 07:01:16;;;;;;;6.68;1.58;;;;;;;;;;5037031;28;20044;-57
2021/11/30 07:03:44;;;;;;;7.95;2.15;;;;;;;;;;5026272;28;20034;-57
2021/11/30 07:06:19;;;;;;;5.97;2.60;;;;;;;;;;5030979;28;20041;-52
2021/11/30 07:08:50;;;;;;;4.90;1.98;;;;;;;;;;5022408;28;20041;-54
2021/11/30 07:11:22;;;;;;;6.63;2.30;;;;;;;;;;5038150;28;22479;-51
2021/11/30 07:13:50;;;;;;;3.45;2.10;;;;;;;;;;5017747;28;20049;-52
2021/11/30 07:16:17;;;;;;;6.90;2.47;;;;;;;;;;5018160;28;20058;-53
2021/11/30 07:18:44;;;;;;;8.43;3.08;;;;;;;;;;5021764;28;20109;-50
2021/11/30 07:21:11;;;;;;;4.95;1.77;;;;;;;;;;5038836;28;20056;-55
2021/11/30 07:23:37;;;;;;;6.63;2.33;;;;;;;;;;5032333;28;20042;-53
2021/11/30 07:26:04;;;;;;;6.50;2.30;;;;;;;;;;5020741;28;20046;-56
2021/11/30 07:28:31;;;;;;;9.32;2.20;;;;;;;;;;5017280;28;20056;-54
2021/11/30 07:31:02;;;;;;;8.07;3.08;;;;;;;;;;5039491;28;20077;-55
2021/11/30 07:33:31;;;;;;;7.97;2.83;;;;;;;;;;5035137;28;20030;-57
2021/11/30 07:35:58;;;;;;;6.95;2.70;;;;;;;;;;5018137;28;20034;-55
2021/11/30 07:38:24;;;;;;;10.13;2.83;;;;;;;;;;5023026;28;20048;-54
2021/11/30 07:40:51;;;;;;;6.40;2.30;;;;;;;;;;5032401;28;20045;-55
2021/11/30 07:43:17;;;;;;;6.55;2.40;;;;;;;;;;5040269;28;20029;-54
2021/11/30 07:45:44;;;;;;;10.88;2.20;;;;;;;;;;5035610;28;20470;-54
2021/11/30 07:48:14;;;;;;;6.57;2.00;;;;;;;;;;5042655;28;20037;-57
2021/11/30 07:50:40;;;;;;;10.18;2.53;;;;;;;;;;5026700;28;20049;-52
2021/11/30 07:53:07;;;;;;;5.10;1.80;;;;;;;;;;5022204;28;20041;-51
2021/11/30 07:55:34;;;;;;;11.95;2.33;;;;;;;;;;5032374;28;20059;-52
2021/11/30 07:58:00;;;;;;;5.68;2.20;;;;;;;;;;5042216;28;20081;-53
2021/11/30 08:00:27;;;;;;;7.25;1.65;;;;;;;;;;5031641;28;20033;-53
2021/11/30 08:02:53;;;;;;;10.80;2.53;;;;;;;;;;5021919;28;20049;-52
2021/11/30 08:05:21;;;;;;;5.90;2.35;;;;;;;;;;5017918;28;20037;-56
2021/11/30 08:07:48;;;;;;;11.40;2.23;;;;;;;;;;5023138;28;20065;-54
2021/11/30 08:10:16;;;;;;;9.27;3.17;;;;;;;;;;5019645;28;20059;-57
2021/11/30 08:12:43;;;;;;;10.70;3.60;;;;;;;;;;5030479;28;20041;-54
2021/11/30 08:15:10;;;;;;;6.32;1.73;;;;;;;;;;5040563;28;20107;-55
2021/11/30 08:17:38;;;;;;;8.60;2.00;;;;;;;;;;5021101;28;20132;-54
2021/11/30 08:20:06;;;;;;;5.97;1.75;;;;;;;;;;5023249;28;20068;-55
2021/11/30 08:22:34;;;;;;;9.18;1.80;;;;;;;;;;5039830;28;20186;-53
2021/11/30 08:25:00;;;;;;;6.20;1.80;;;;;;;;;;5044995;28;20034;-53
2021/11/30 08:27:28;;;;;;;9.95;2.13;;;;;;;;;;5024878;28;20730;-57
2021/11/30 08:29:55;;;;;;;7.75;2.10;;;;;;;;;;5021997;28;20042;-54
2021/11/30 08:32:23;;;;;;;3.40;1.60;;;;;;;;;;5019433;28;20111;-51
2021/11/30 08:34:50;;;;;;;5.20;1.98;;;;;;;;;;5021286;28;20041;-53
2021/11/30 08:37:16;;;;;;;9.02;1.70;;;;;;;;;;5029044;28;20041;-52
2021/11/30 08:39:47;;;;;;;5.30;1.60;;;;;;;;;;5042750;28;20233;-54
2021/11/30 08:42:14;;;;;;;6.00;1.63;;;;;;;;;;5028633;28;20046;-53
2021/11/30 08:44:40;;;;;;;3.22;1.50;;;;;;;;;;5021128;28;20139;-54
2021/11/30 08:47:08;;;;;;;7.05;1.50;;;;;;;;;;5018606;28;20046;-54
2021/11/30 08:49:34;;;;;;;3.80;1.40;;;;;;;;;;5020774;28;20050;-55
2021/11/30 08:52:02;;;;;;;5.43;1.55;;;;;;;;;;5020671;28;20034;-53
2021/11/30 08:54:29;;;;;;;5.95;2.13;;;;;;;;;;5041534;28;20037;-55
2021/11/30 08:56:57;;;;;;;4.88;1.60;;;;;;;;;;5037035;28;20053;-54
2021/11/30 08:59:23;;;;;;;11.48;1.85;;;;;;;;;;5023961;28;20045;-54
2021/11/30 09:01:50;;;;;;;3.90;1.20;;;;;;;;;;5036221;28;20052;-55
2021/11/30 09:04:17;;;;;;;3.20;1.30;;;;;;;;;;5031905;28;20052;-54
2021/11/30 09:06:43;;;;;;;4.88;1.40;;;;;;;;;;5034924;28;20045;-54
2021/11/30 09:09:11;;;;;;;4.85;1.40;;;;;;;;;;5038328;28;20168;-53
2021/11/30 09:11:37;;;;;;;2.70;1.00;;;;;;;;;;5040299;28;20106;-53
2021/11/30 09:14:06;;;;;;;4.57;1.20;;;;;;;;;;5015555;28;20048;-54
2021/11/30 09:16:33;;;;;;;3.80;1.27;;;;;;;;;;5021202;28;20127;-56
2021/11/30 09:18:59;;;;;;;4.78;1.63;;;;;;;;;;5015991;28;20041;-53
2021/11/30 09:21:27;;;;;;;5.75;1.17;;;;;;;;;;5020723;28;20086;-52
2021/11/30 09:23:54;;;;;;;3.53;1.30;;;;;;;;;;5015687;28;20026;-54
2021/11/30 09:26:20;;;;;;;4.57;1.17;;;;;;;;;;5020089;28;20050;-52
2021/11/30 09:28:47;;;;;;;6.28;1.40;;;;;;;;;;5016604;28;20048;-52
2021/11/30 09:31:17;;;;;;;7.40;1.73;;;;;;;;;;5019480;28;20065;-57
2021/11/30 09:33:44;;;;;;;7.38;1.67;;;;;;;;;;5025562;28;20114;-57
2021/11/30 09:36:11;;;;;;;6.97;2.60;;;;;;;;;;5039262;28;20045;-53
2021/11/30 09:38:38;;;;;;;6.90;1.30;;;;;;;;;;5037349;28;20121;-58
2021/11/30 09:41:04;;;;;;;5.30;1.33;;;;;;;;;;5038409;28;20037;-55
2021/11/30 09:43:32;;;;;;;3.75;1.15;;;;;;;;;;5040395;28;20052;-51
2021/11/30 09:45:59;;;;;;;4.45;1.05;;;;;;;;;;5019525;28;20041;-57
2021/11/30 09:48:27;;;;;;;3.53;1.00;;;;;;;;;;5022185;28;20401;-55
2021/11/30 09:50:54;;;;;;;6.55;1.27;;;;;;;;;;5015156;28;20053;-54
2021/11/30 09:53:21;;;;;;;5.43;1.05;;;;;;;;;;5020743;28;20038;-50
2021/11/30 09:55:48;;;;;;;3.97;1.13;;;;;;;;;;5016650;28;20134;-56
2021/11/30 09:58:15;;;;;;;8.32;1.40;;;;;;;;;;5022275;28;20058;-56
2021/11/30 10:00:42;;;;;;;3.92;1.00;;;;;;;;;;5017176;28;20382;-56
2021/11/30 10:03:09;;;;;;;8.98;1.55;;;;;;;;;;5018940;28;20549;-55
2021/11/30 10:05:39;;;;;;;7.53;1.30;;;;;;;;;;5027364;28;20049;-54
2021/11/30 10:08:06;;;;;;;4.80;1.23;;;;;;;;;;5040359;28;20033;-54
2021/11/30 10:10:35;;;;;;;4.13;1.38;;;;;;;;;;5028727;28;20030;-56
2021/11/30 10:13:10;;;;;;;6.55;1.10;;;;;;;;;;5032110;28;20030;-57
2021/11/30 10:15:49;;;;;;;1.92;0.90;;;;;;;;;;5030687;28;20056;-54
2021/11/30 10:18:16;;;;;;;5.32;1.20;;;;;;;;;;5019083;28;20073;-53
2021/11/30 10:20:45;;;;;;;2.35;0.50;;;;;;;;;;5016741;28;20041;-55
2021/11/30 10:23:12;;;;;;;1.58;0.30;;;;;;;;;;5020320;28;20049;-53
2021/11/30 10:25:40;;;;;;;1.08;0.32;;;;;;;;;;5019062;28;20037;-56
2021/11/30 10:28:08;;;;;;;0.40;0.28;;;;;;;;;;5040519;28;20045;-56
2021/11/30 10:30:36;;;;;;;2.42;0.40;;;;;;;;;;5036278;28;20045;-53
2021/11/30 10:33:04;;;;;;;2.58;0.50;;;;;;;;;;5037065;28;20041;-53
2021/11/30 10:35:31;;;;;;;1.50;0.40;;;;;;;;;;5021534;28;20116;-55
2021/11/30 10:37:59;;;;;;;0.25;0.25;;;;;;;;;;5031752;28;20287;-55
2021/11/30 10:40:27;;;;;;;1.20;0.50;;;;;;;;;;5020990;28;20045;-57
2021/11/30 10:42:55;;;;;;;2.08;0.40;;;;;;;;;;5016743;28;20034;-56
2021/11/30 10:45:25;;;;;;;0.38;0.25;;;;;;;;;;5020362;28;20057;-55
2021/11/30 10:47:53;;;;;;;2.35;0.30;;;;;;;;;;5016612;28;20053;-54
2021/11/30 10:50:25;;;;;;;0.45;0.35;;;;;;;;;;5020281;28;20057;-56
2021/11/30 10:52:57;;;;;;;1.60;0.40;;;;;;;;;;5016806;28;20116;-55
2021/11/30 10:55:25;;;;;;;1.52;0.50;;;;;;;;;;5018351;28;20050;-54
2021/11/30 10:57:53;;;;;;;0.67;0.40;;;;;;;;;;5028591;28;20039;-57
2021/11/30 11:00:23;;;;;;;0.68;0.45;;;;;;;;;;5038635;28;20060;-54
2021/11/30 11:02:52;;;;;;;1.77;0.50;;;;;;;;;;5029825;28;20150;-56
2021/11/30 11:05:20;;;;;;;1.17;0.43;;;;;;;;;;5018534;28;20049;-56
2021/11/30 11:07:57;;;;;;;0.70;0.50;;;;;;;;;;5026475;28;20109;-57
2021/11/30 11:10:26;;;;;;;0.95;0.40;;;;;;;;;;5036657;28;20069;-57
2021/11/30 11:12:52;;;;;;;1.75;0.85;;;;;;;;;;5034581;28;20127;-56
2021/11/30 11:15:36;;;;;;;0.95;0.60;;;;;;;;;;5038323;28;20045;-57
2021/11/30 11:18:17;;;;;;;1.42;0.70;;;;;;;;;;5029948;28;20053;-55
2021/11/30 11:20:44;;;;;;;0.93;0.52;;;;;;;;;;5020739;28;20662;-57
2021/11/30 11:23:19;;;;;;;1.65;0.60;;;;;;;;;;5018439;28;20046;-57
2021/11/30 11:25:47;;;;;;;5.65;0.68;;;;;;;;;;5022283;28;20451;-54
2021/11/30 11:28:13;;;;;;;2.00;0.68;;;;;;;;;;5025912;28;20073;-54
2021/11/30 11:30:41;;;;;;;2.90;0.55;;;;;;;;;;5042588;28;20037;-56
2021/11/30 11:33:07;;;;;;;1.92;0.50;;;;;;;;;;5037970;28;20053;-57
2021/11/30 11:35:35;;;;;;;1.85;0.60;;;;;;;;;;5042268;28;20066;-55
2021/11/30 11:38:02;;;;;;;1.13;0.50;;;;;;;;;;5040592;28;20052;-57
2021/11/30 11:40:29;;;;;;;5.60;0.50;;;;;;;;;;5020198;28;20049;-57
2021/11/30 11:42:57;;;;;;;0.57;0.40;;;;;;;;;;5021821;28;20033;-57
2021/11/30 11:45:23;;;;;;;1.27;0.47;;;;;;;;;;5018133;28;20398;-57
2021/11/30 11:47:50;;;;;;;2.25;0.63;;;;;;;;;;5022987;28;20033;-57
2021/11/30 11:50:17;;;;;;;0.85;0.50;;;;;;;;;;5026703;28;20491;-56
2021/11/30 11:52:44;;;;;;;2.30;0.68;;;;;;;;;;5039938;28;20033;-56
2021/11/30 11:55:12;;;;;;;1.38;0.43;;;;;;;;;;5026530;28;20044;-55
2021/11/30 11:57:41;;;;;;;3.22;0.70;;;;;;;;;;5020529;28;20045;-55
2021/11/30 12:00:16;;;;;;;0.75;0.50;;;;;;;;;;5018386;28;20070;-56
2021/11/30 12:02:53;;;;;;;0.45;0.40;;;;;;;;;;5021331;28;20061;-53
2021/11/30 12:05:38;;;;;;;2.05;0.60;;;;;;;;;;5027136;28;20057;-55
2021/11/30 12:08:05;;;;;;;0.52;0.52;;;;;;;;;;5039928;28;20061;-57
2021/11/30 12:10:33;;;;;;;2.65;0.40;;;;;;;;;;5038372;28;20047;-56
2021/11/30 12:13:17;;;;;;;2.83;0.50;;;;;;;;;;5029374;28;20288;-56
2021/11/30 12:15:58;;;;;;;1.02;0.73;;;;;;;;;;5018095;28;20050;-54
2021/11/30 12:18:28;;;;;;;1.83;0.57;;;;;;;;;;5021277;28;20046;-57
2021/11/30 12:21:07;;;;;;;3.17;0.90;;;;;;;;;;5018265;28;20042;-57
2021/11/30 12:23:34;;;;;;;1.80;1.00;;;;;;;;;;5021233;28;20534;-55
2021/11/30 12:26:00;;;;;;;1.10;0.70;;;;;;;;;;5019685;28;20139;-57
2021/11/30 12:28:32;;;;;;;1.35;0.57;;;;;;;;;;5022795;28;20122;-58
2021/11/30 12:31:01;;;;;;;1.98;0.70;;;;;;;;;;5026728;28;20041;-57
2021/11/30 12:33:30;;;;;;;3.10;1.00;;;;;;;;;;5034287;28;20049;-56
2021/11/30 12:35:58;;;;;;;5.05;0.70;;;;;;;;;;5017834;28;20065;-56
2021/11/30 12:38:26;;;;;;;2.13;0.50;;;;;;;;;;5023666;28;20074;-57
2021/11/30 12:40:53;;;;;;;1.90;0.60;;;;;;;;;;5019653;28;20048;-54
2021/11/30 12:43:23;;;;;;;2.08;0.70;;;;;;;;;;5041509;28;20048;-56
2021/11/30 12:45:52;;;;;;;1.95;0.70;;;;;;;;;;5037396;28;20045;-57
2021/11/30 12:48:23;;;;;;;1.27;0.70;;;;;;;;;;5040423;28;20047;-57
2021/11/30 12:50:57;;;;;;;0.60;0.50;;;;;;;;;;5040748;28;20318;-56
2021/11/30 12:53:38;;;;;;;0.60;0.60;;;;;;;;;;5020906;28;20058;-54
2021/11/30 12:56:05;;;;;;;2.28;0.70;;;;;;;;;;5018641;28;20042;-54
2021/11/30 12:58:45;;;;;;;3.20;0.57;;;;;;;;;;5021236;28;20062;-57
2021/11/30 13:01:16;;;;;;;0.95;0.50;;;;;;;;;;5029085;28;20045;-56
2021/11/30 13:03:45;;;;;;;2.30;0.70;;;;;;;;;;5039934;28;20033;-58
2021/11/30 13:06:12;;;;;;;1.00;0.50;;;;;;;;;;5040762;28;20030;-55
2021/11/30 13:08:56;;;;;;;3.00;0.50;;;;;;;;;;5016823;28;20053;-57
2021/11/30 13:11:27;;;;;;;1.45;0.73;;;;;;;;;;5020594;28;20073;-57
2021/11/30 13:13:58;;;;;;;1.02;0.50;;;;;;;;;;5019821;28;20103;-55
2021/11/30 13:16:25;;;;;;;1.10;0.50;;;;;;;;;;5023042;28;20043;-55
2021/11/30 13:19:01;;;;;;;0.93;0.40;;;;;;;;;;5017655;28;20054;-52
2021/11/30 13:21:32;;;;;;;3.22;0.70;;;;;;;;;;5020868;28;20378;-55
2021/11/30 13:24:03;;;;;;;3.50;0.52;;;;;;;;;;5031545;28;20176;-56
2021/11/30 13:26:30;;;;;;;1.75;0.88;;;;;;;;;;5041689;28;20041;-54
2021/11/30 13:28:59;;;;;;;2.20;0.68;;;;;;;;;;5024167;28;20460;-52
2021/11/30 13:31:25;;;;;;;2.08;0.70;;;;;;;;;;5020777;28;20038;-57
2021/11/30 13:33:55;;;;;;;0.57;0.50;;;;;;;;;;5017538;28;20046;-56
2021/11/30 13:36:27;;;;;;;1.40;0.50;;;;;;;;;;5022365;28;20123;-55
2021/11/30 13:38:53;;;;;;;0.60;0.40;;;;;;;;;;5017856;28;20085;-55
2021/11/30 13:41:20;;;;;;;1.30;0.55;;;;;;;;;;5022794;28;20045;-57
2021/11/30 13:43:48;;;;;;;0.65;0.47;;;;;;;;;;5018287;28;20046;-58
2021/11/30 13:46:16;;;;;;;3.03;0.80;;;;;;;;;;5019967;28;20038;-58
2021/11/30 13:48:44;;;;;;;0.60;0.50;;;;;;;;;;5017990;28;20081;-57
2021/11/30 13:51:14;;;;;;;1.10;0.65;;;;;;;;;;5021426;28;20052;-59
2021/11/30 13:53:47;;;;;;;1.13;0.77;;;;;;;;;;5024431;28;20059;-55
2021/11/30 13:56:17;;;;;;;0.80;0.60;;;;;;;;;;5040700;28;20052;-55
2021/11/30 13:58:47;;;;;;;1.58;0.60;;;;;;;;;;5038453;28;20105;-57
2021/11/30 14:01:19;;;;;;;1.00;0.70;;;;;;;;;;5040086;28;20052;-57
2021/11/30 14:03:47;;;;;;;0.98;0.63;;;;;;;;;;5036790;28;20065;-57
2021/11/30 14:06:28;;;;;;;2.13;0.90;;;;;;;;;;5021715;28;20038;-55
2021/11/30 14:08:56;;;;;;;2.80;0.80;;;;;;;;;;5018335;28;20115;-57
2021/11/30 14:11:24;;;;;;;0.80;0.60;;;;;;;;;;5019400;28;20046;-55
2021/11/30 14:13:50;;;;;;;6.53;2.78;;;;;;;;;;5019125;28;20053;-57
2021/11/30 14:16:17;;;;;;;9.00;3.40;;;;;;;;;;5016010;28;20172;-57
2021/11/30 14:18:52;;;;;;;3.85;1.55;;;;;;;;;;5033876;28;20037;-58
2021/11/30 14:21:19;;;;;;;1.85;0.90;;;;;;;;;;5016836;28;20051;-54
2021/11/30 14:24:00;;;;;;;2.97;1.08;;;;;;;;;;5018941;28;20034;-54
2021/11/30 14:26:26;;;;;;;1.55;1.13;;;;;;;;;;5031974;28;20061;-56
2021/11/30 14:28:59;;;;;;;1.45;1.00;;;;;;;;;;5040286;28;20055;-57
2021/11/30 14:31:26;;;;;;;2.38;1.08;;;;;;;;;;5040740;28;20036;-57
2021/11/30 14:33:52;;;;;;;2.47;0.90;;;;;;;;;;5042567;28;20037;-57
2021/11/30 14:36:22;;;;;;;1.90;1.00;;;;;;;;;;5017019;28;20053;-57
2021/11/30 14:38:51;;;;;;;1.55;0.80;;;;;;;;;;5019535;28;20065;-57
2021/11/30 14:41:18;;;;;;;1.38;0.88;;;;;;;;;;5016379;28;20073;-57
2021/11/30 14:43:45;;;;;;;2.85;1.20;;;;;;;;;;5032148;28;20034;-57
2021/11/30 14:46:15;;;;;;;2.03;1.15;;;;;;;;;;5017837;28;20037;-57
2021/11/30 14:48:43;;;;;;;2.95;1.50;;;;;;;;;;5019033;28;20064;-55
2021/11/30 14:51:11;;;;;;;2.55;1.25;;;;;;;;;;5021017;28;20068;-57
2021/11/30 14:53:39;;;;;;;1.77;1.20;;;;;;;;;;5040612;28;20053;-55
2021/11/30 14:56:09;;;;;;;3.45;1.40;;;;;;;;;;5036172;28;20408;-56
2021/11/30 14:58:36;;;;;;;3.33;1.30;;;;;;;;;;5038505;28;20037;-58